Time;durP1;ratioP1;P1;durP2;ratioP2;P2;SDS_P1;SDS_P2;PMS_P1;PMS_P2;Temp;Humidity;BMP_temperature;BMP_pressure;BME280_temperature;BME280_humidity;BME280_pressure;Samples;Min_cycle;Max_cycle;Signal;HPM_P1;HPM_P2
2021/09/25 00:01:46;;;;;;;;;;;22.30;63.40;;;;;;5224336;28;20051;-54
2021/09/25 00:04:18;;;;;;;6.68;4.70;;;22.20;63.40;;;;;;5229581;28;20175;-50
2021/09/25 00:06:51;;;;;;;8.35;5.45;;;22.20;63.30;;;;;;5222734;28;21078;-51
2021/09/25 00:09:24;;;;;;;7.93;5.28;;;22.20;63.30;;;;;;5227220;28;20040;-50
2021/09/25 00:11:56;;;;;;;8.65;5.05;;;22.20;63.20;;;;;;5210015;28;20515;-50
2021/09/25 00:14:29;;;;;;;7.10;5.00;;;22.20;63.20;;;;;;5231579;28;20052;-52
2021/09/25 00:17:01;;;;;;;6.93;4.80;;;22.20;63.20;;;;;;5220439;28;20052;-50
2021/09/25 00:19:35;;;;;;;8.02;5.30;;;22.20;63.10;;;;;;5223432;28;20049;-49
2021/09/25 00:22:08;;;;;;;6.18;4.93;;;22.20;63.10;;;;;;5207732;28;20075;-51
2021/09/25 00:24:40;;;;;;;7.10;5.15;;;22.20;63.20;;;;;;5224564;28;20493;-52
2021/09/25 00:27:13;;;;;;;8.13;4.97;;;22.20;63.20;;;;;;5233371;28;20051;-50
2021/09/25 00:29:45;;;;;;;9.35;5.13;;;22.20;63.10;;;;;;5219240;28;20048;-52
2021/09/25 00:32:17;;;;;;;9.60;4.95;;;22.20;63.10;;;;;;5227866;28;20056;-52
2021/09/25 00:34:50;;;;;;;9.50;5.35;;;22.20;63.10;;;;;;5204820;28;20048;-55
2021/09/25 00:37:23;;;;;;;6.30;4.57;;;22.20;63.20;;;;;;5222628;28;20064;-57
2021/09/25 00:39:55;;;;;;;8.13;5.07;;;22.20;63.20;;;;;;5228287;28;20056;-52
2021/09/25 00:42:27;;;;;;;6.65;5.25;;;22.20;63.20;;;;;;5226749;28;20063;-53
2021/09/25 00:45:00;;;;;;;5.70;4.53;;;22.20;63.20;;;;;;5223826;28;20053;-51
2021/09/25 00:47:34;;;;;;;6.43;4.70;;;22.10;63.20;;;;;;5226273;28;20053;-52
2021/09/25 00:50:08;;;;;;;6.38;5.07;;;22.20;63.20;;;;;;5226736;28;20508;-53
2021/09/25 00:52:40;;;;;;;;;;;22.10;63.20;;;;;;5230672;28;20040;-52
2021/09/25 00:55:13;;;;;;;7.35;4.93;;;22.10;63.40;;;;;;5224585;28;19931;-57
2021/09/25 00:57:47;;;;;;;5.63;4.80;;;22.10;63.30;;;;;;5224593;28;20056;-55
2021/09/25 01:00:20;;;;;;;6.00;4.68;;;22.10;63.30;;;;;;5232487;28;20045;-55
2021/09/25 01:02:53;;;;;;;6.35;4.25;;;22.10;63.40;;;;;;5218129;28;20044;-55
2021/09/25 01:05:26;;;;;;;6.40;4.65;;;22.10;63.30;;;;;;5228331;28;20132;-54
2021/09/25 01:07:59;;;;;;;9.43;4.78;;;22.10;63.30;;;;;;5207215;28;20048;-55
2021/09/25 01:10:32;;;;;;;8.27;3.97;;;22.10;63.40;;;;;;5225522;28;21103;-57
2021/09/25 01:13:05;;;;;;;6.88;5.15;;;22.10;63.40;;;;;;5224454;28;20040;-51
2021/09/25 01:15:38;;;;;;;6.40;4.65;;;22.10;63.40;;;;;;5226274;28;20044;-56
2021/09/25 01:18:11;;;;;;;6.75;4.93;;;22.10;63.30;;;;;;5230753;28;21307;-50
2021/09/25 01:20:43;;;;;;;6.53;4.63;;;22.10;63.40;;;;;;5228148;28;20048;-54
2021/09/25 01:23:16;;;;;;;5.65;4.50;;;22.10;63.40;;;;;;5226966;28;20102;-54
2021/09/25 01:25:48;;;;;;;10.07;3.83;;;22.10;63.30;;;;;;5227487;28;20056;-55
2021/09/25 01:28:21;;;;;;;5.97;4.28;;;22.10;63.30;;;;;;5226770;28;20043;-52
2021/09/25 01:30:54;;;;;;;5.13;4.18;;;22.00;63.20;;;;;;5231773;28;20397;-54
2021/09/25 01:33:30;;;;;;;5.35;4.55;;;22.00;63.20;;;;;;5226091;28;20480;-52
2021/09/25 01:36:02;;;;;;;9.15;4.68;;;22.10;63.20;;;;;;5226198;28;20408;-53
2021/09/25 01:38:36;;;;;;;5.53;4.22;;;22.10;63.20;;;;;;5224207;28;20056;-56
2021/09/25 01:41:08;;;;;;;;;;;22.10;63.80;;;;;;5225477;28;20056;-55
2021/09/25 01:43:41;;;;;;;5.07;3.97;;;22.00;63.30;;;;;;5207636;28;19943;-53
2021/09/25 01:46:19;;;;;;;5.33;3.90;;;22.00;63.10;;;;;;5223651;28;20053;-54
2021/09/25 01:48:52;;;;;;;6.65;4.40;;;22.00;63.10;;;;;;5223950;28;20040;-56
2021/09/25 01:51:29;;;;;;;5.13;4.13;;;22.00;63.10;;;;;;5230038;28;20041;-55
2021/09/25 01:54:05;;;;;;;8.50;4.75;;;22.00;63.30;;;;;;5223538;28;20040;-53
2021/09/25 01:56:39;;;;;;;6.28;4.35;;;22.00;63.40;;;;;;5204883;28;20044;-56
2021/09/25 01:59:12;;;;;;;6.38;4.25;;;22.00;63.30;;;;;;5226533;28;20406;-53
2021/09/25 02:01:44;;;;;;;6.03;3.90;;;22.00;63.20;;;;;;5224189;28;20535;-54
2021/09/25 02:04:17;;;;;;;6.07;4.37;;;22.00;63.20;;;;;;5227091;28;21272;-50
2021/09/25 02:06:49;;;;;;;5.22;4.55;;;22.00;63.30;;;;;;5209116;28;20048;-50
2021/09/25 02:09:21;;;;;;;5.07;4.03;;;22.00;63.30;;;;;;5227408;28;20055;-54
2021/09/25 02:11:54;;;;;;;5.50;3.95;;;22.10;63.40;;;;;;5228476;28;20036;-54
2021/09/25 02:14:26;;;;;;;6.00;3.90;;;22.10;63.10;;;;;;5225151;28;20056;-52
2021/09/25 02:16:59;;;;;;;5.05;4.30;;;22.00;63.20;;;;;;5231606;28;20036;-52
2021/09/25 02:19:31;;;;;;;5.35;3.85;;;22.10;63.50;;;;;;5227451;28;20048;-56
2021/09/25 02:22:03;;;;;;;6.43;3.90;;;22.10;63.40;;;;;;5227964;28;20733;-53
2021/09/25 02:24:36;;;;;;;6.28;4.00;;;22.10;63.30;;;;;;5227650;28;20520;-53
2021/09/25 02:27:09;;;;;;;6.00;4.37;;;22.10;63.20;;;;;;5226327;28;20064;-50
2021/09/25 02:29:41;;;;;;;7.90;4.20;;;22.10;63.30;;;;;;5219438;28;20291;-54
2021/09/25 02:32:14;;;;;;;8.88;3.97;;;22.10;63.10;;;;;;5225270;28;20431;-54
2021/09/25 02:34:46;;;;;;;10.70;4.40;;;22.10;63.00;;;;;;5200992;28;20929;-55
2021/09/25 02:37:19;;;;;;;6.07;4.20;;;22.10;63.00;;;;;;5219798;28;20049;-50
2021/09/25 02:39:51;;;;;;;9.63;4.57;;;22.10;63.10;;;;;;5227976;28;20071;-52
2021/09/25 02:42:24;;;;;;;5.90;4.00;;;22.10;63.10;;;;;;5228890;28;20053;-51
2021/09/25 02:44:56;;;;;;;7.97;4.22;;;22.10;62.80;;;;;;5227493;28;20406;-52
2021/09/25 02:47:29;;;;;;;5.38;4.10;;;22.10;62.90;;;;;;5232819;28;20051;-54
2021/09/25 02:50:02;;;;;;;5.88;3.83;;;22.10;62.90;;;;;;5228061;28;20060;-56
2021/09/25 02:52:34;;;;;;;4.30;3.65;;;22.10;63.00;;;;;;5221217;28;20053;-54
2021/09/25 02:55:08;;;;;;;6.90;4.07;;;22.10;62.80;;;;;;5225591;28;20045;-55
2021/09/25 02:57:40;;;;;;;;;;;22.20;62.80;;;;;;5210302;28;20052;-53
2021/09/25 03:00:16;;;;;;;6.90;4.00;;;22.10;62.70;;;;;;5220557;28;20385;-54
2021/09/25 03:02:49;;;;;;;7.00;3.60;;;22.10;62.70;;;;;;5221694;28;20048;-51
2021/09/25 03:05:22;;;;;;;4.72;3.55;;;22.10;62.60;;;;;;5224215;28;20044;-54
2021/09/25 03:07:55;;;;;;;5.90;3.87;;;22.10;62.60;;;;;;5221542;28;20300;-54
2021/09/25 03:10:28;;;;;;;5.35;4.38;;;22.10;62.80;;;;;;5224605;28;20376;-53
2021/09/25 03:13:00;;;;;;;5.03;4.13;;;22.10;62.60;;;;;;5229199;28;20064;-54
2021/09/25 03:15:33;;;;;;;5.45;3.85;;;22.10;62.60;;;;;;5217596;28;20049;-51
2021/09/25 03:18:05;;;;;;;8.45;3.78;;;22.10;62.60;;;;;;5227693;28;20415;-54
2021/09/25 03:20:38;;;;;;;7.00;3.63;;;22.10;62.60;;;;;;5200486;28;20044;-55
2021/09/25 03:23:10;;;;;;;4.60;3.77;;;22.10;62.70;;;;;;5230225;28;20048;-53
2021/09/25 03:25:43;;;;;;;3.97;3.42;;;22.10;62.70;;;;;;5224153;28;20972;-51
2021/09/25 03:28:15;;;;;;;6.28;3.83;;;22.10;62.60;;;;;;5214621;28;20055;-50
2021/09/25 03:30:48;;;;;;;4.88;3.55;;;22.10;62.60;;;;;;5226213;28;20048;-50
2021/09/25 03:33:21;;;;;;;4.90;3.90;;;22.10;62.40;;;;;;5233662;28;20049;-53
2021/09/25 03:35:53;;;;;;;7.55;3.47;;;22.10;62.60;;;;;;5225500;28;20076;-52
2021/09/25 03:38:27;;;;;;;4.97;3.63;;;22.10;62.70;;;;;;5229513;28;20719;-53
2021/09/25 03:41:00;;;;;;;5.95;3.83;;;22.10;62.60;;;;;;5225377;28;20533;-55
2021/09/25 03:43:33;;;;;;;6.60;3.70;;;22.10;62.10;;;;;;5228112;28;20052;-53
2021/09/25 03:46:05;;;;;;;5.55;3.75;;;22.10;62.60;;;;;;5226413;28;20055;-48
2021/09/25 03:48:38;;;;;;;7.45;3.28;;;22.10;62.60;;;;;;5216389;28;20057;-52
2021/09/25 03:51:11;;;;;;;6.97;3.80;;;22.10;62.60;;;;;;5220962;28;20059;-55
2021/09/25 03:53:43;;;;;;;5.53;4.22;;;22.10;62.50;;;;;;5223171;28;20798;-52
2021/09/25 03:56:16;;;;;;;5.25;3.28;;;22.10;62.50;;;;;;5231101;28;20637;-55
2021/09/25 03:58:49;;;;;;;7.38;3.95;;;22.10;62.60;;;;;;5234021;28;20583;-53
2021/09/25 04:01:22;;;;;;;6.82;3.97;;;22.10;62.60;;;;;;5225959;28;20052;-53
2021/09/25 04:03:56;;;;;;;9.40;3.92;;;22.10;62.50;;;;;;5230946;28;20047;-55
2021/09/25 04:06:28;;;;;;;7.60;4.10;;;22.10;62.50;;;;;;5229171;28;20063;-54
2021/09/25 04:09:01;;;;;;;6.30;3.38;;;22.10;62.60;;;;;;5207649;28;20048;-52
2021/09/25 04:11:34;;;;;;;5.32;3.72;;;22.10;62.40;;;;;;5230519;28;20487;-50
2021/09/25 04:14:07;;;;;;;8.20;4.32;;;22.10;62.50;;;;;;5230109;28;20051;-51
2021/09/25 04:16:40;;;;;;;5.87;3.77;;;22.10;62.50;;;;;;5212511;28;20075;-55
2021/09/25 04:19:13;;;;;;;4.88;3.92;;;22.10;62.60;;;;;;5226363;28;20444;-55
2021/09/25 04:21:47;;;;;;;4.32;3.65;;;22.10;62.70;;;;;;5226594;28;20051;-57
2021/09/25 04:24:19;;;;;;;3.95;3.35;;;22.10;62.70;;;;;;5224694;28;20056;-54
2021/09/25 04:26:52;;;;;;;5.28;3.50;;;22.10;62.80;;;;;;5231152;28;20056;-52
2021/09/25 04:29:24;;;;;;;7.88;3.55;;;22.10;62.80;;;;;;5231422;28;20063;-51
2021/09/25 04:31:57;;;;;;;4.83;3.80;;;22.10;62.90;;;;;;5233726;28;20036;-52
2021/09/25 04:34:29;;;;;;;4.55;3.42;;;22.10;63.40;;;;;;5231420;28;20056;-53
2021/09/25 04:37:02;;;;;;;4.43;3.53;;;22.10;62.80;;;;;;5233587;28;20089;-52
2021/09/25 04:39:35;;;;;;;5.07;3.50;;;22.10;63.00;;;;;;5231396;28;20055;-50
2021/09/25 04:42:07;;;;;;;4.20;3.42;;;22.10;63.10;;;;;;5233112;28;20052;-56
2021/09/25 04:44:40;;;;;;;4.93;3.60;;;22.20;63.10;;;;;;5229521;28;21186;-53
2021/09/25 04:47:12;;;;;;;4.50;3.30;;;22.20;63.10;;;;;;5228486;28;20314;-49
2021/09/25 04:49:45;;;;;;;3.78;3.17;;;22.20;63.20;;;;;;5231646;28;21226;-50
2021/09/25 04:52:17;;;;;;;5.32;3.55;;;22.20;63.20;;;;;;5232085;28;20044;-57
2021/09/25 04:54:49;;;;;;;6.13;3.42;;;22.20;63.20;;;;;;5229448;28;20048;-53
2021/09/25 04:57:22;;;;;;;4.07;3.20;;;22.20;63.30;;;;;;5228729;28;20047;-54
2021/09/25 04:59:54;;;;;;;4.50;3.20;;;22.30;63.30;;;;;;5227699;28;20044;-53
2021/09/25 05:02:27;;;;;;;5.53;3.30;;;22.30;63.30;;;;;;5231027;28;20060;-53
2021/09/25 05:05:00;;;;;;;4.10;3.40;;;22.30;63.30;;;;;;5227327;28;20048;-53
2021/09/25 05:07:32;;;;;;;6.40;3.40;;;22.30;63.30;;;;;;5230765;28;20296;-56
2021/09/25 05:10:05;;;;;;;6.13;3.53;;;22.30;63.30;;;;;;5228391;28;20039;-54
2021/09/25 05:12:37;;;;;;;5.93;3.50;;;22.30;63.30;;;;;;5230752;28;20041;-55
2021/09/25 05:15:10;;;;;;;5.73;3.87;;;22.30;63.30;;;;;;5231439;28;20055;-51
2021/09/25 05:17:43;;;;;;;6.50;3.30;;;22.30;63.40;;;;;;5229956;28;20516;-56
2021/09/25 05:20:15;;;;;;;3.53;3.08;;;22.30;63.40;;;;;;5221900;28;20053;-54
2021/09/25 05:22:48;;;;;;;5.43;3.70;;;22.30;63.30;;;;;;5221032;28;20162;-56
2021/09/25 05:25:20;;;;;;;4.97;3.45;;;22.40;63.40;;;;;;5211802;28;20044;-52
2021/09/25 05:27:53;;;;;;;6.40;3.45;;;22.40;63.40;;;;;;5224222;28;20420;-54
2021/09/25 05:30:26;;;;;;;6.72;3.58;;;22.40;63.30;;;;;;5219777;28;20526;-54
2021/09/25 05:32:59;;;;;;;3.95;2.95;;;22.40;63.30;;;;;;5221947;28;20087;-56
2021/09/25 05:35:31;;;;;;;6.87;3.60;;;22.40;63.30;;;;;;5218464;28;20040;-57
2021/09/25 05:38:04;;;;;;;7.55;3.15;;;22.40;63.30;;;;;;5223930;28;20048;-51
2021/09/25 05:40:36;;;;;;;9.52;3.45;;;22.40;63.20;;;;;;5216833;28;20535;-57
2021/09/25 05:43:09;;;;;;;4.03;3.22;;;22.40;63.30;;;;;;5215778;28;21716;-53
2021/09/25 05:45:41;;;;;;;8.40;3.30;;;22.40;63.30;;;;;;5193938;28;20048;-56
2021/09/25 05:48:14;;;;;;;12.43;4.05;;;22.40;63.30;;;;;;5214630;28;20045;-55
2021/09/25 05:50:48;;;;;;;8.95;3.22;;;22.30;63.40;;;;;;5221891;28;20060;-55
2021/09/25 05:53:21;;;;;;;16.17;4.93;;;22.40;63.50;;;;;;5215175;28;20044;-54
2021/09/25 05:55:53;;;;;;;6.93;3.78;;;22.40;63.60;;;;;;5222449;28;20552;-54
2021/09/25 05:58:26;;;;;;;13.52;4.38;;;22.40;63.60;;;;;;5216450;28;20044;-55
2021/09/25 06:00:58;;;;;;;8.27;3.80;;;22.50;63.70;;;;;;5210631;28;25446;-52
2021/09/25 06:03:31;;;;;;;7.15;3.40;;;22.40;63.70;;;;;;5214696;28;20566;-55
2021/09/25 06:06:04;;;;;;;14.20;3.72;;;22.40;63.80;;;;;;5214572;28;20812;-53
2021/09/25 06:08:37;;;;;;;9.23;3.45;;;22.40;63.80;;;;;;5222825;28;20060;-55
2021/09/25 06:11:10;;;;;;;12.65;3.95;;;22.50;63.90;;;;;;5208485;28;20048;-54
2021/09/25 06:13:42;;;;;;;8.57;3.85;;;22.50;64.00;;;;;;5198084;28;21559;-55
2021/09/25 06:16:15;;;;;;;6.22;3.40;;;22.50;64.00;;;;;;5216369;28;20045;-51
2021/09/25 06:18:47;;;;;;;8.43;3.30;;;22.50;64.00;;;;;;5225702;28;20041;-55
2021/09/25 06:21:20;;;;;;;9.38;3.38;;;22.50;64.00;;;;;;5212776;28;20052;-53
2021/09/25 06:23:52;;;;;;;10.93;3.35;;;22.50;64.10;;;;;;5204503;28;20053;-57
2021/09/25 06:26:25;;;;;;;7.45;4.38;;;22.50;64.10;;;;;;5179622;28;20532;-54
2021/09/25 06:28:58;;;;;;;7.65;3.60;;;22.50;64.10;;;;;;5217617;28;20532;-55
2021/09/25 06:31:31;;;;;;;14.77;4.55;;;22.60;64.30;;;;;;5218942;28;20048;-52
2021/09/25 06:34:03;;;;;;;13.18;4.25;;;22.50;64.30;;;;;;5214355;28;20044;-55
2021/09/25 06:36:41;;;;;;;19.95;3.95;;;22.60;64.30;;;;;;5211250;28;20055;-54
2021/09/25 06:39:14;;;;;;;15.25;4.07;;;22.60;64.50;;;;;;5196853;28;20052;-56
2021/09/25 06:41:46;;;;;;;22.23;4.47;;;22.60;64.40;;;;;;5218198;28;20416;-54
2021/09/25 06:44:20;;;;;;;;;;;22.60;64.30;;;;;;5202251;28;21145;-54
2021/09/25 06:46:53;;;;;;;23.38;4.15;;;22.60;64.40;;;;;;5225361;28;19931;-56
2021/09/25 06:49:25;;;;;;;12.60;3.90;;;22.60;64.40;;;;;;5224904;28;20071;-53
2021/09/25 06:51:57;;;;;;;16.80;4.25;;;22.60;64.50;;;;;;5216052;28;20512;-54
2021/09/25 06:54:32;;;;;;;15.43;3.70;;;22.60;64.40;;;;;;5222526;28;20508;-53
2021/09/25 06:57:10;;;;;;;12.57;4.05;;;22.60;64.40;;;;;;5208872;28;20040;-55
2021/09/25 06:59:42;;;;;;;12.90;3.70;;;22.60;64.50;;;;;;5207303;28;20040;-47
2021/09/25 07:02:15;;;;;;;14.38;4.72;;;22.70;64.50;;;;;;5217673;28;20044;-55
2021/09/25 07:04:48;;;;;;;13.38;4.22;;;22.70;64.50;;;;;;5221643;28;20598;-52
2021/09/25 07:07:20;;;;;;;12.70;3.60;;;22.70;64.50;;;;;;5173845;28;20049;-53
2021/09/25 07:09:53;;;;;;;13.98;3.85;;;22.70;64.50;;;;;;5215284;28;20044;-48
2021/09/25 07:12:32;;;;;;;14.15;4.75;;;22.70;64.60;;;;;;5230856;28;20044;-48
2021/09/25 07:15:05;;;;;;;20.13;4.88;;;22.70;64.60;;;;;;5224208;28;20044;-53
2021/09/25 07:17:37;;;;;;;24.55;4.53;;;22.70;64.70;;;;;;5224088;28;20063;-49
2021/09/25 07:20:11;;;;;;;17.17;4.43;;;22.70;64.70;;;;;;5207047;28;20065;-49
2021/09/25 07:22:46;;;;;;;16.85;4.10;;;22.70;64.70;;;;;;5221110;28;20048;-50
2021/09/25 07:25:20;;;;;;;13.98;4.35;;;22.70;64.70;;;;;;5222144;28;20405;-51
2021/09/25 07:27:52;;;;;;;21.95;4.10;;;22.70;64.70;;;;;;5220812;28;20056;-47
2021/09/25 07:30:26;;;;;;;16.85;4.25;;;22.70;64.70;;;;;;5216308;28;20055;-51
2021/09/25 07:33:00;;;;;;;11.55;3.70;;;22.70;64.70;;;;;;5210616;28;20044;-48
2021/09/25 07:35:34;;;;;;;17.83;4.50;;;22.70;64.70;;;;;;5218239;28;20075;-49
2021/09/25 07:38:07;;;;;;;13.38;3.70;;;22.70;64.70;;;;;;5221596;28;20096;-50
2021/09/25 07:40:40;;;;;;;18.33;4.30;;;22.70;64.70;;;;;;5212371;28;20051;-47
2021/09/25 07:43:12;;;;;;;16.90;3.88;;;22.80;64.70;;;;;;5214806;28;23310;-48
2021/09/25 07:45:45;;;;;;;16.77;3.95;;;22.70;64.70;;;;;;5213345;28;20516;-49
2021/09/25 07:48:18;;;;;;;13.90;4.68;;;22.80;64.70;;;;;;5216884;28;20493;-47
2021/09/25 07:50:51;;;;;;;20.00;3.83;;;22.70;64.70;;;;;;5214371;28;20497;-48
2021/09/25 07:53:23;;;;;;;8.18;3.13;;;22.80;64.80;;;;;;5199796;28;20041;-51
2021/09/25 07:55:56;;;;;;;8.35;3.58;;;22.80;64.80;;;;;;5222150;28;20052;-47
2021/09/25 07:58:28;;;;;;;14.07;3.97;;;22.80;64.80;;;;;;5203195;28;20053;-49
2021/09/25 08:01:02;;;;;;;12.23;3.53;;;22.80;64.80;;;;;;5221798;28;20048;-54
2021/09/25 08:03:35;;;;;;;11.98;3.67;;;22.80;64.80;;;;;;5196063;28;20049;-53
2021/09/25 08:06:08;;;;;;;12.13;3.65;;;22.80;64.80;;;;;;5219045;28;20040;-50
2021/09/25 08:08:41;;;;;;;9.23;3.90;;;22.80;64.80;;;;;;5219720;28;20060;-55
2021/09/25 08:11:14;;;;;;;14.07;3.95;;;22.80;64.80;;;;;;5227951;28;20413;-54
2021/09/25 08:13:47;;;;;;;9.68;3.92;;;22.80;65.50;;;;;;5190899;28;20441;-50
2021/09/25 08:16:20;;;;;;;16.50;4.47;;;22.80;64.90;;;;;;5209584;28;20036;-52
2021/09/25 08:18:53;;;;;;;10.80;4.00;;;22.80;64.90;;;;;;5204267;28;20055;-51
2021/09/25 08:21:26;;;;;;;;;;;22.80;65.00;;;;;;5223920;28;20056;-51
2021/09/25 08:23:58;;;;;;;12.55;3.10;;;22.70;64.90;;;;;;5221460;28;20415;-50
2021/09/25 08:26:32;;;;;;;15.00;3.90;;;22.80;64.90;;;;;;5221156;28;20419;-51
2021/09/25 08:29:06;;;;;;;9.35;3.55;;;22.80;64.90;;;;;;5188025;28;20071;-50
2021/09/25 08:31:38;;;;;;;5.78;3.97;;;22.70;64.80;;;;;;5229239;28;20405;-51
2021/09/25 08:34:13;;;;;;;10.70;3.53;;;22.80;64.90;;;;;;5230029;28;20036;-51
2021/09/25 08:36:46;;;;;;;11.32;3.63;;;22.70;64.90;;;;;;5206400;28;20405;-52
2021/09/25 08:39:18;;;;;;;10.10;3.50;;;22.80;64.80;;;;;;5225943;28;20044;-52
2021/09/25 08:41:52;;;;;;;9.02;3.25;;;22.70;64.80;;;;;;5228561;28;20056;-54
2021/09/25 08:44:26;;;;;;;9.38;3.50;;;22.70;64.80;;;;;;5206988;28;20067;-54
2021/09/25 08:46:58;;;;;;;7.30;3.47;;;22.70;64.80;;;;;;5230838;28;20747;-51
2021/09/25 08:49:31;;;;;;;6.17;4.00;;;22.70;64.80;;;;;;5206442;28;20532;-50
2021/09/25 08:52:04;;;;;;;6.47;3.30;;;22.70;64.80;;;;;;5229324;28;20124;-52
2021/09/25 08:54:37;;;;;;;8.73;3.60;;;22.70;64.80;;;;;;5227756;28;20470;-53
2021/09/25 08:57:09;;;;;;;11.73;3.40;;;22.70;64.80;;;;;;5228743;28;20527;-52
2021/09/25 08:59:42;;;;;;;15.03;4.37;;;22.70;64.90;;;;;;5222098;28;20037;-52
2021/09/25 09:02:17;;;;;;;11.77;3.80;;;22.70;64.80;;;;;;5216816;28;20519;-49
2021/09/25 09:04:53;;;;;;;7.75;3.60;;;22.70;64.80;;;;;;5221247;28;20044;-52
2021/09/25 09:07:29;;;;;;;4.75;3.17;;;22.70;64.80;;;;;;5225076;28;20488;-50
2021/09/25 09:10:02;;;;;;;8.20;3.30;;;22.70;64.80;;;;;;5221947;28;20048;-53
2021/09/25 09:12:35;;;;;;;9.95;3.35;;;22.70;64.90;;;;;;5221763;28;20040;-49
2021/09/25 09:15:09;;;;;;;4.78;3.20;;;22.70;64.80;;;;;;5215818;28;20517;-50
2021/09/25 09:17:42;;;;;;;6.30;2.85;;;22.60;64.80;;;;;;5214071;28;20684;-51
2021/09/25 09:20:15;;;;;;;;;;;22.60;64.70;;;;;;5221771;28;20044;-54
2021/09/25 09:22:47;;;;;;;6.45;3.53;;;22.60;64.80;;;;;;5221465;28;19931;-54
2021/09/25 09:25:19;;;;;;;6.30;3.20;;;22.60;64.80;;;;;;5208782;28;20464;-49
2021/09/25 09:27:52;;;;;;;5.00;3.40;;;22.60;64.80;;;;;;5222779;28;20071;-53
2021/09/25 09:30:24;;;;;;;6.85;3.40;;;22.60;64.80;;;;;;5215382;28;21039;-54
2021/09/25 09:32:57;;;;;;;6.78;3.20;;;22.70;64.90;;;;;;5200067;28;20595;-53
2021/09/25 09:35:30;;;;;;;4.78;3.30;;;22.60;64.80;;;;;;5221122;28;20048;-51
2021/09/25 09:38:02;;;;;;;5.73;3.10;;;22.60;64.90;;;;;;5215150;28;20385;-50
2021/09/25 09:40:34;;;;;;;4.18;2.72;;;22.60;64.90;;;;;;5223955;28;20048;-52
2021/09/25 09:43:10;;;;;;;4.18;2.88;;;22.60;65.00;;;;;;5221965;28;20057;-54
2021/09/25 09:45:43;;;;;;;7.00;3.70;;;22.60;65.00;;;;;;5212093;28;20056;-51
2021/09/25 09:48:20;;;;;;;5.90;3.35;;;22.60;65.00;;;;;;5230280;28;20055;-50
2021/09/25 09:50:53;;;;;;;5.50;3.15;;;22.70;65.10;;;;;;5195392;28;20520;-51
2021/09/25 09:53:40;;;;;;;4.22;3.33;;;22.60;65.10;;;;;;5227446;28;20271;-51
2021/09/25 09:56:24;;;;;;;4.30;3.40;;;22.60;65.30;;;;;;5224471;28;20049;-49
2021/09/25 09:59:04;;;;;;;6.47;3.90;;;22.60;65.50;;;;;;5224937;28;20112;-51
2021/09/25 10:01:38;;;;;;;4.80;3.70;;;22.60;66.00;;;;;;5225360;28;20049;-50
2021/09/25 10:04:12;;;;;;;5.53;3.65;;;22.60;66.20;;;;;;5203686;28;20546;-50
2021/09/25 10:06:45;;;;;;;;;;;22.60;66.60;;;;;;5225309;28;20421;-48
2021/09/25 10:09:23;;;;;;;5.13;3.70;;;22.60;66.90;;;;;;5204128;28;19920;-52
2021/09/25 10:11:59;;;;;;;7.60;3.47;;;22.60;67.20;;;;;;5231125;28;20417;-56
2021/09/25 10:14:33;;;;;;;7.40;3.35;;;22.60;67.40;;;;;;5218795;28;20051;-54
2021/09/25 10:17:11;;;;;;;4.75;3.70;;;22.60;67.60;;;;;;5219253;28;20420;-51
2021/09/25 10:19:45;;;;;;;5.63;3.63;;;22.60;67.70;;;;;;5217949;28;20052;-51
2021/09/25 10:22:24;;;;;;;6.97;3.38;;;22.60;67.70;;;;;;5206264;28;20055;-48
2021/09/25 10:25:03;;;;;;;4.88;3.75;;;22.60;67.90;;;;;;5216040;28;20045;-52
2021/09/25 10:27:39;;;;;;;8.50;3.50;;;22.60;67.80;;;;;;5222833;28;20586;-49
2021/09/25 10:30:13;;;;;;;6.28;3.80;;;22.60;67.80;;;;;;5221988;28;20053;-51
2021/09/25 10:32:50;;;;;;;6.88;3.40;;;22.60;67.90;;;;;;5226475;28;20040;-50
2021/09/25 10:35:27;;;;;;;7.15;3.40;;;22.60;68.50;;;;;;5217225;28;20782;-49
2021/09/25 10:38:02;;;;;;;6.18;3.42;;;22.60;67.90;;;;;;5203343;28;20036;-51
2021/09/25 10:41:17;;;;;;;14.32;3.45;;;22.60;67.90;;;;;;5208221;28;20048;-52
2021/09/25 10:43:50;;;;;;;5.78;2.97;;;22.70;68.60;;;;;;5203090;28;20505;-54
2021/09/25 10:46:23;;;;;;;7.18;3.40;;;22.70;67.80;;;;;;5220019;28;20409;-52
2021/09/25 10:48:55;;;;;;;6.25;3.50;;;22.70;67.70;;;;;;5220995;28;20488;-53
2021/09/25 10:51:29;;;;;;;7.43;3.03;;;22.70;67.60;;;;;;5224807;28;20060;-50
2021/09/25 10:54:02;;;;;;;4.95;3.40;;;22.70;67.60;;;;;;5218821;28;20393;-52
2021/09/25 10:56:46;;;;;;;5.22;3.30;;;22.80;67.50;;;;;;5215991;28;20045;-51
2021/09/25 10:59:19;;;;;;;6.70;3.72;;;22.80;67.40;;;;;;5224465;28;20044;-54
2021/09/25 11:01:55;;;;;;;3.65;3.15;;;22.80;67.40;;;;;;5220375;28;20410;-48
2021/09/25 11:04:33;;;;;;;8.02;3.58;;;22.80;67.30;;;;;;5226106;28;20296;-49
2021/09/25 11:07:08;;;;;;;4.80;3.05;;;22.80;67.10;;;;;;5191853;28;20068;-49
2021/09/25 11:09:42;;;;;;;5.05;3.03;;;22.90;67.10;;;;;;5229922;28;20049;-55
2021/09/25 11:12:16;;;;;;;3.95;3.20;;;22.90;67.00;;;;;;5228791;28;20051;-52
2021/09/25 11:14:55;;;;;;;5.38;3.22;;;23.00;67.00;;;;;;5226647;28;20631;-52
2021/09/25 11:17:28;;;;;;;4.75;2.90;;;23.00;66.90;;;;;;5229602;28;20040;-48
2021/09/25 11:20:08;;;;;;;5.15;3.42;;;23.00;67.00;;;;;;5224645;28;20045;-54
2021/09/25 11:22:45;;;;;;;8.93;3.78;;;23.10;66.90;;;;;;5227819;28;20424;-52
2021/09/25 11:25:30;;;;;;;8.00;3.90;;;23.10;66.80;;;;;;5217938;28;20870;-48
2021/09/25 11:28:06;;;;;;;6.60;4.70;;;23.20;66.80;;;;;;5202268;28;20056;-49
2021/09/25 11:30:38;;;;;;;6.10;3.33;;;23.20;66.70;;;;;;5205280;28;26288;-50
2021/09/25 11:33:23;;;;;;;10.02;3.80;;;23.30;66.70;;;;;;5204401;28;20056;-51
2021/09/25 11:35:56;;;;;;;5.77;3.33;;;23.30;66.70;;;;;;5210329;28;20057;-54
2021/09/25 11:38:45;;;;;;;7.15;3.58;;;23.30;66.70;;;;;;5204579;28;20561;-50
2021/09/25 11:41:18;;;;;;;7.53;3.65;;;23.40;66.70;;;;;;5217159;28;20223;-50
2021/09/25 11:43:57;;;;;;;5.35;3.78;;;23.40;66.70;;;;;;5206108;28;20505;-52
2021/09/25 11:46:30;;;;;;;7.05;3.70;;;23.50;66.70;;;;;;5197183;28;20043;-53
2021/09/25 11:49:06;;;;;;;10.63;4.30;;;23.50;66.60;;;;;;5213291;28;20063;-53
2021/09/25 11:51:39;;;;;;;8.10;3.13;;;23.50;66.60;;;;;;5206149;28;20497;-52
2021/09/25 11:54:12;;;;;;;8.35;4.13;;;23.60;66.60;;;;;;5194317;28;20052;-52
2021/09/25 11:56:49;;;;;;;6.10;3.28;;;23.60;66.50;;;;;;5197907;28;20056;-54
2021/09/25 11:59:23;;;;;;;6.75;3.90;;;23.70;66.50;;;;;;5189210;28;20044;-49
2021/09/25 12:01:55;;;;;;;5.35;3.60;;;23.70;66.50;;;;;;5191800;28;20049;-52
2021/09/25 12:04:41;;;;;;;8.48;3.70;;;23.70;66.40;;;;;;5191974;28;20045;-52
2021/09/25 12:07:14;;;;;;;8.63;3.83;;;23.80;66.20;;;;;;5177941;28;20521;-52
2021/09/25 12:09:47;;;;;;;8.35;4.20;;;23.80;66.20;;;;;;5169473;28;20051;-53
2021/09/25 12:12:26;;;;;;;7.90;3.87;;;23.80;66.10;;;;;;5198675;28;20481;-49
2021/09/25 12:15:22;;;;;;;6.93;4.22;;;23.90;66.10;;;;;;5204691;28;20428;-51
2021/09/25 12:18:12;;;;;;;7.72;3.97;;;23.90;65.90;;;;;;5206261;28;20044;-53
2021/09/25 12:21:04;;;;;;;8.88;3.88;;;24.00;65.90;;;;;;5206596;28;20053;-51
2021/09/25 12:23:39;;;;;;;4.97;3.78;;;24.00;66.40;;;;;;5210433;28;20049;-54
2021/09/25 12:26:20;;;;;;;9.20;3.60;;;24.00;65.70;;;;;;5203943;28;20056;-52
2021/09/25 12:28:55;;;;;;;8.18;4.25;;;24.00;65.70;;;;;;5208868;28;20052;-51
2021/09/25 12:31:30;;;;;;;8.00;3.30;;;24.10;65.60;;;;;;5204607;28;20052;-50
2021/09/25 12:34:06;;;;;;;6.75;3.97;;;24.10;65.50;;;;;;5207389;28;20049;-52
2021/09/25 12:36:42;;;;;;;4.65;3.50;;;24.10;65.40;;;;;;5199190;28;20041;-52
2021/09/25 12:39:29;;;;;;;7.68;3.58;;;24.20;65.50;;;;;;5197000;28;20053;-50
2021/09/25 12:42:04;;;;;;;7.45;3.80;;;24.20;65.30;;;;;;5194749;28;20429;-54
2021/09/25 12:44:39;;;;;;;6.20;3.50;;;24.20;65.30;;;;;;5199483;28;20049;-49
2021/09/25 12:47:12;;;;;;;6.35;3.30;;;24.20;65.20;;;;;;5196397;28;20049;-51
2021/09/25 12:49:45;;;;;;;7.20;3.73;;;24.20;65.10;;;;;;5201904;28;20052;-48
2021/09/25 12:52:17;;;;;;;6.45;3.88;;;24.30;65.10;;;;;;5196470;28;20052;-51
2021/09/25 12:54:51;;;;;;;8.15;4.13;;;24.30;65.00;;;;;;5193892;28;20045;-52
2021/09/25 12:57:24;;;;;;;6.30;3.65;;;24.30;65.00;;;;;;5194801;28;20056;-53
2021/09/25 13:00:04;;;;;;;9.02;3.70;;;24.40;65.00;;;;;;5193724;28;20053;-51
2021/09/25 13:02:36;;;;;;;5.25;3.60;;;24.40;64.90;;;;;;5194602;28;20053;-53
2021/09/25 13:05:10;;;;;;;5.25;3.72;;;24.40;64.80;;;;;;5184937;28;20540;-51
2021/09/25 13:07:43;;;;;;;6.15;3.83;;;24.40;64.80;;;;;;5186936;28;20038;-55
2021/09/25 13:10:22;;;;;;;9.50;3.70;;;24.40;64.70;;;;;;5188431;28;20522;-52
2021/09/25 13:12:55;;;;;;;8.93;4.03;;;24.40;64.70;;;;;;5188444;28;20052;-53
2021/09/25 13:15:30;;;;;;;6.95;3.83;;;24.50;64.70;;;;;;5185980;28;20041;-53
2021/09/25 13:18:02;;;;;;;7.22;3.92;;;24.50;64.70;;;;;;5188173;28;20064;-52
2021/09/25 13:20:36;;;;;;;9.23;4.43;;;24.50;64.60;;;;;;5186790;28;20060;-53
2021/09/25 13:23:18;;;;;;;7.18;3.95;;;24.50;64.50;;;;;;5184869;28;20374;-54